My/aldabra — FFZV — position and weather

sailwx.info

Track history (hours):
 
Tides and Currents Weather Stations Pressure Air Temp Water Temp Dewpoint Dewpoint Depression Visibility Wind Speed Wind Dir Waves Ship Positions

My/aldabra

Last reported at 2017-Aug-27 13:25 UTC. Time now 2017-Dec-18 18:30 UTC.
Position N 43°34' E 007°05'.
Warning: this ship's position is months out of date.

Length 23 m; draft 1.9 m.

Type: Ship. MMSI: 228004800.

Date/timePositionNaut miles runAvg speedWind from/ knotsBaromVisibWave heightAir tempDewpointWater temp
2017-Aug-27 13:25N 43°34' E 007°05'1 3.3
2017-Aug-27 12:58N 43°32' E 007°05'510.4
2017-Aug-27 12:29N 43°29' E 007°01'8 1.6
2017-Aug-27 07:42N 43°25' E 006°52'211.7
2017-Aug-27 07:30N 43°23' E 006°49'611.1
2017-Aug-27 07:00N 43°20' E 006°43'510.3
2017-Aug-27 06:29N 43°16' E 006°37'0 0.0
2017-Aug-26 22:45N 43°16' E 006°37'0 0.0
2017-Aug-26 22:27N 43°16' E 006°37'0 0.0
2017-Aug-26 21:59N 43°16' E 006°37'0 0.0
2017-Aug-26 20:55N 43°16' E 006°37'0 0.0
2017-Aug-26 20:24N 43°16' E 006°37'0 0.0
2017-Aug-26 20:00N 43°16' E 006°37'0 0.0
2017-Aug-26 19:13N 43°16' E 006°37'0 0.0
2017-Aug-26 18:59N 43°16' E 006°37'0 0.0
2017-Aug-26 18:30N 43°16' E 006°37'0 0.0
2017-Aug-26 17:58N 43°16' E 006°37'0 0.0
2017-Aug-26 17:23N 43°16' E 006°37'0 0.0
2017-Aug-26 17:00N 43°16' E 006°37'0 0.0
2017-Aug-26 16:30N 43°16' E 006°37'0 0.0
2017-Aug-26 12:20N 43°16' E 006°37'0 0.0
2017-Aug-26 11:56N 43°16' E 006°37'0 0.0
2017-Aug-26 10:37N 43°16' E 006°37'0 0.1
2017-Aug-26 10:30N 43°16' E 006°37'0 0.0
2017-Aug-26 10:00N 43°16' E 006°37'0 0.0
2017-Aug-26 04:45N 43°16' E 006°37'0 0.0
2017-Aug-26 00:51N 43°16' E 006°37'0 0.0
2017-Aug-25 23:50N 43°16' E 006°37'0 0.0
2017-Aug-25 23:29N 43°16' E 006°37'18 1.3
2017-Aug-25 08:44N 43°27' E 006°58'210.7
2017-Aug-25 08:30N 43°28' E 007°01'4 8.6
2017-Aug-25 08:00N 43°32' E 007°05'  
Track history (hours):
 
Tides and Currents Weather Stations Pressure Air Temp Water Temp Dewpoint Dewpoint Depression Visibility Wind Speed Wind Dir Waves Ship Positions

My/aldabra

Last reported at 2017-Aug-27 13:25 UTC. Time now 2017-Dec-18 18:30 UTC.
Position N 43°34' E 007°05'.
Warning: this ship's position is months out of date.

Length 23 m; draft 1.9 m.

Type: Ship. MMSI: 228004800.

Date/timePositionNaut miles runAvg speedWind from/ knotsBaromVisibWave heightAir tempDewpointWater temp
2017-Aug-27 13:25N 43°34' E 007°05'1 3.3
2017-Aug-27 12:58N 43°32' E 007°05'510.4
2017-Aug-27 12:29N 43°29' E 007°01'8 1.6
2017-Aug-27 07:42N 43°25' E 006°52'211.7
2017-Aug-27 07:30N 43°23' E 006°49'611.1
2017-Aug-27 07:00N 43°20' E 006°43'510.3
2017-Aug-27 06:29N 43°16' E 006°37'0 0.0
2017-Aug-26 22:45N 43°16' E 006°37'0 0.0
2017-Aug-26 22:27N 43°16' E 006°37'0 0.0
2017-Aug-26 21:59N 43°16' E 006°37'0 0.0
2017-Aug-26 20:55N 43°16' E 006°37'0 0.0
2017-Aug-26 20:24N 43°16' E 006°37'0 0.0
2017-Aug-26 20:00N 43°16' E 006°37'0 0.0
2017-Aug-26 19:13N 43°16' E 006°37'0 0.0
2017-Aug-26 18:59N 43°16' E 006°37'0 0.0
2017-Aug-26 18:30N 43°16' E 006°37'0 0.0
2017-Aug-26 17:58N 43°16' E 006°37'0 0.0
2017-Aug-26 17:23N 43°16' E 006°37'0 0.0
2017-Aug-26 17:00N 43°16' E 006°37'0 0.0
2017-Aug-26 16:30N 43°16' E 006°37'0 0.0
2017-Aug-26 12:20N 43°16' E 006°37'0 0.0
2017-Aug-26 11:56N 43°16' E 006°37'0 0.0
2017-Aug-26 10:37N 43°16' E 006°37'0 0.1
2017-Aug-26 10:30N 43°16' E 006°37'0 0.0
2017-Aug-26 10:00N 43°16' E 006°37'0 0.0
2017-Aug-26 04:45N 43°16' E 006°37'0 0.0
2017-Aug-26 00:51N 43°16' E 006°37'0 0.0
2017-Aug-25 23:50N 43°16' E 006°37'0 0.0
2017-Aug-25 23:29N 43°16' E 006°37'18 1.3
2017-Aug-25 08:44N 43°27' E 006°58'210.7
2017-Aug-25 08:30N 43°28' E 007°01'4 8.6
2017-Aug-25 08:00N 43°32' E 007°05'  

Dump ship's entire track history